sensor_id;sensor_type;location;lat;lon;timestamp;P1;durP1;ratioP1;P2;durP2;ratioP2
40649;SDS011;26342;42.826;23.992;2023-04-29T00:01:20;0.22;;;0.20;;
40649;SDS011;26342;42.826;23.992;2023-04-29T00:03:45;0.95;;;0.57;;
40649;SDS011;26342;42.826;23.992;2023-04-29T00:06:11;1.02;;;1.02;;
40649;SDS011;26342;42.826;23.992;2023-04-29T00:08:37;0.63;;;0.60;;
40649;SDS011;26342;42.826;23.992;2023-04-29T00:11:03;0.25;;;0.25;;
40649;SDS011;26342;42.826;23.992;2023-04-29T00:13:28;1.67;;;1.23;;
40649;SDS011;26342;42.826;23.992;2023-04-29T00:15:53;1.70;;;0.82;;
40649;SDS011;26342;42.826;23.992;2023-04-29T00:18:19;3.10;;;1.73;;
40649;SDS011;26342;42.826;23.992;2023-04-29T00:20:45;2.72;;;0.88;;
40649;SDS011;26342;42.826;23.992;2023-04-29T00:23:10;1.50;;;0.93;;
40649;SDS011;26342;42.826;23.992;2023-04-29T00:25:36;1.67;;;1.55;;
40649;SDS011;26342;42.826;23.992;2023-04-29T00:28:02;0.55;;;0.52;;
40649;SDS011;26342;42.826;23.992;2023-04-29T00:30:29;0.43;;;0.43;;
40649;SDS011;26342;42.826;23.992;2023-04-29T00:32:56;0.98;;;0.80;;
40649;SDS011;26342;42.826;23.992;2023-04-29T00:35:22;1.05;;;0.38;;
40649;SDS011;26342;42.826;23.992;2023-04-29T00:37:47;1.48;;;0.90;;
40649;SDS011;26342;42.826;23.992;2023-04-29T00:40:13;1.13;;;0.88;;
40649;SDS011;26342;42.826;23.992;2023-04-29T00:42:39;2.95;;;1.98;;
40649;SDS011;26342;42.826;23.992;2023-04-29T00:45:05;1.30;;;1.10;;
40649;SDS011;26342;42.826;23.992;2023-04-29T00:47:32;1.13;;;1.13;;
40649;SDS011;26342;42.826;23.992;2023-04-29T00:49:57;2.50;;;1.10;;
40649;SDS011;26342;42.826;23.992;2023-04-29T00:52:22;3.03;;;1.90;;
40649;SDS011;26342;42.826;23.992;2023-04-29T00:54:49;1.00;;;1.00;;
40649;SDS011;26342;42.826;23.992;2023-04-29T00:57:16;0.90;;;0.90;;
40649;SDS011;26342;42.826;23.992;2023-04-29T00:59:43;5.35;;;1.98;;
40649;SDS011;26342;42.826;23.992;2023-04-29T01:02:09;2.40;;;1.50;;
40649;SDS011;26342;42.826;23.992;2023-04-29T01:04:35;1.35;;;0.90;;
40649;SDS011;26342;42.826;23.992;2023-04-29T01:07:08;1.95;;;1.85;;
40649;SDS011;26342;42.826;23.992;2023-04-29T01:12:40;1.05;;;0.77;;
40649;SDS011;26342;42.826;23.992;2023-04-29T01:18:16;1.08;;;1.08;;
40649;SDS011;26342;42.826;23.992;2023-04-29T01:20:45;1.23;;;0.73;;
40649;SDS011;26342;42.826;23.992;2023-04-29T01:23:10;0.73;;;0.73;;
40649;SDS011;26342;42.826;23.992;2023-04-29T01:25:36;1.92;;;1.10;;
40649;SDS011;26342;42.826;23.992;2023-04-29T01:30:59;1.63;;;1.20;;
40649;SDS011;26342;42.826;23.992;2023-04-29T01:38:52;0.40;;;0.40;;
40649;SDS011;26342;42.826;23.992;2023-04-29T01:41:34;1.75;;;0.77;;
40649;SDS011;26342;42.826;23.992;2023-04-29T01:44:14;0.40;;;0.40;;
40649;SDS011;26342;42.826;23.992;2023-04-29T01:46:42;0.80;;;0.75;;
40649;SDS011;26342;42.826;23.992;2023-04-29T01:49:13;0.57;;;0.57;;
40649;SDS011;26342;42.826;23.992;2023-04-29T01:51:38;2.40;;;0.75;;
40649;SDS011;26342;42.826;23.992;2023-04-29T01:54:04;0.95;;;0.65;;
40649;SDS011;26342;42.826;23.992;2023-04-29T01:56:30;1.60;;;0.75;;
40649;SDS011;26342;42.826;23.992;2023-04-29T01:58:55;1.05;;;1.00;;
40649;SDS011;26342;42.826;23.992;2023-04-29T02:01:21;0.60;;;0.60;;
40649;SDS011;26342;42.826;23.992;2023-04-29T02:03:47;2.10;;;0.93;;
40649;SDS011;26342;42.826;23.992;2023-04-29T02:06:12;1.60;;;1.23;;
40649;SDS011;26342;42.826;23.992;2023-04-29T02:08:38;2.35;;;0.98;;
40649;SDS011;26342;42.826;23.992;2023-04-29T02:11:04;0.55;;;0.52;;
40649;SDS011;26342;42.826;23.992;2023-04-29T02:13:34;2.58;;;1.77;;
40649;SDS011;26342;42.826;23.992;2023-04-29T02:16:10;0.85;;;0.85;;
40649;SDS011;26342;42.826;23.992;2023-04-29T02:18:37;0.82;;;0.82;;
40649;SDS011;26342;42.826;23.992;2023-04-29T02:21:02;1.33;;;0.68;;
40649;SDS011;26342;42.826;23.992;2023-04-29T02:23:28;7.78;;;1.08;;
40649;SDS011;26342;42.826;23.992;2023-04-29T02:25:54;0.47;;;0.47;;
40649;SDS011;26342;42.826;23.992;2023-04-29T02:28:20;1.48;;;0.75;;
40649;SDS011;26342;42.826;23.992;2023-04-29T02:30:47;1.48;;;0.88;;
40649;SDS011;26342;42.826;23.992;2023-04-29T02:33:12;2.67;;;0.82;;
40649;SDS011;26342;42.826;23.992;2023-04-29T02:35:38;0.20;;;0.20;;
40649;SDS011;26342;42.826;23.992;2023-04-29T02:38:05;2.20;;;1.20;;
40649;SDS011;26342;42.826;23.992;2023-04-29T02:40:30;1.52;;;1.15;;
40649;SDS011;26342;42.826;23.992;2023-04-29T02:42:59;2.13;;;0.98;;
40649;SDS011;26342;42.826;23.992;2023-04-29T02:45:25;1.10;;;1.05;;
40649;SDS011;26342;42.826;23.992;2023-04-29T02:47:51;0.20;;;0.20;;
40649;SDS011;26342;42.826;23.992;2023-04-29T02:50:16;1.17;;;0.60;;
40649;SDS011;26342;42.826;23.992;2023-04-29T02:52:46;1.30;;;0.52;;
40649;SDS011;26342;42.826;23.992;2023-04-29T02:55:11;0.30;;;0.30;;
40649;SDS011;26342;42.826;23.992;2023-04-29T02:57:36;2.38;;;0.95;;
40649;SDS011;26342;42.826;23.992;2023-04-29T03:00:02;4.13;;;3.58;;
40649;SDS011;26342;42.826;23.992;2023-04-29T03:02:28;5.03;;;3.53;;
40649;SDS011;26342;42.826;23.992;2023-04-29T03:04:53;11.45;;;4.80;;
40649;SDS011;26342;42.826;23.992;2023-04-29T03:07:19;2.90;;;2.53;;
40649;SDS011;26342;42.826;23.992;2023-04-29T03:09:44;2.85;;;2.05;;
40649;SDS011;26342;42.826;23.992;2023-04-29T03:12:10;5.30;;;2.03;;
40649;SDS011;26342;42.826;23.992;2023-04-29T03:14:36;1.60;;;1.38;;
40649;SDS011;26342;42.826;23.992;2023-04-29T03:17:01;1.30;;;1.05;;
40649;SDS011;26342;42.826;23.992;2023-04-29T03:19:27;1.42;;;1.20;;
40649;SDS011;26342;42.826;23.992;2023-04-29T03:21:52;2.33;;;1.73;;
40649;SDS011;26342;42.826;23.992;2023-04-29T03:24:17;1.23;;;1.13;;
40649;SDS011;26342;42.826;23.992;2023-04-29T03:26:43;4.38;;;1.60;;
40649;SDS011;26342;42.826;23.992;2023-04-29T03:29:09;0.73;;;0.73;;
40649;SDS011;26342;42.826;23.992;2023-04-29T03:31:35;1.98;;;1.40;;
40649;SDS011;26342;42.826;23.992;2023-04-29T03:34:04;2.42;;;2.22;;
40649;SDS011;26342;42.826;23.992;2023-04-29T03:36:29;2.35;;;1.30;;
40649;SDS011;26342;42.826;23.992;2023-04-29T03:38:55;0.47;;;0.47;;
40649;SDS011;26342;42.826;23.992;2023-04-29T03:41:20;0.47;;;0.47;;
40649;SDS011;26342;42.826;23.992;2023-04-29T03:43:47;1.90;;;1.33;;
40649;SDS011;26342;42.826;23.992;2023-04-29T03:46:13;0.50;;;0.50;;
40649;SDS011;26342;42.826;23.992;2023-04-29T03:48:38;2.80;;;2.15;;
40649;SDS011;26342;42.826;23.992;2023-04-29T03:51:04;1.10;;;1.02;;
40649;SDS011;26342;42.826;23.992;2023-04-29T03:53:30;3.05;;;1.00;;
40649;SDS011;26342;42.826;23.992;2023-04-29T03:55:57;3.13;;;2.13;;
40649;SDS011;26342;42.826;23.992;2023-04-29T03:58:22;2.25;;;1.00;;
40649;SDS011;26342;42.826;23.992;2023-04-29T04:00:48;2.78;;;2.35;;
40649;SDS011;26342;42.826;23.992;2023-04-29T04:03:13;4.38;;;2.83;;
40649;SDS011;26342;42.826;23.992;2023-04-29T04:05:38;3.30;;;1.35;;
40649;SDS011;26342;42.826;23.992;2023-04-29T04:08:04;4.05;;;1.63;;
40649;SDS011;26342;42.826;23.992;2023-04-29T04:10:32;2.25;;;1.50;;
40649;SDS011;26342;42.826;23.992;2023-04-29T04:12:58;3.53;;;2.40;;
40649;SDS011;26342;42.826;23.992;2023-04-29T04:15:23;3.85;;;2.92;;
40649;SDS011;26342;42.826;23.992;2023-04-29T04:17:50;3.13;;;2.20;;
40649;SDS011;26342;42.826;23.992;2023-04-29T04:20:16;8.57;;;5.22;;
40649;SDS011;26342;42.826;23.992;2023-04-29T04:22:41;11.13;;;7.97;;
40649;SDS011;26342;42.826;23.992;2023-04-29T04:25:07;10.60;;;5.95;;
40649;SDS011;26342;42.826;23.992;2023-04-29T04:27:33;4.15;;;3.78;;
40649;SDS011;26342;42.826;23.992;2023-04-29T04:29:58;11.70;;;4.38;;
40649;SDS011;26342;42.826;23.992;2023-04-29T04:32:25;7.35;;;5.28;;
40649;SDS011;26342;42.826;23.992;2023-04-29T04:34:50;6.93;;;5.43;;
40649;SDS011;26342;42.826;23.992;2023-04-29T04:37:16;5.75;;;3.10;;
40649;SDS011;26342;42.826;23.992;2023-04-29T04:39:42;3.50;;;2.20;;
40649;SDS011;26342;42.826;23.992;2023-04-29T04:42:07;2.28;;;2.10;;
40649;SDS011;26342;42.826;23.992;2023-04-29T04:44:33;5.70;;;2.45;;
40649;SDS011;26342;42.826;23.992;2023-04-29T04:46:58;4.60;;;3.88;;
40649;SDS011;26342;42.826;23.992;2023-04-29T04:49:27;5.22;;;3.10;;
40649;SDS011;26342;42.826;23.992;2023-04-29T04:51:52;7.68;;;3.58;;
40649;SDS011;26342;42.826;23.992;2023-04-29T04:54:18;3.28;;;2.47;;
40649;SDS011;26342;42.826;23.992;2023-04-29T04:56:44;4.25;;;2.50;;
40649;SDS011;26342;42.826;23.992;2023-04-29T04:59:12;2.95;;;2.67;;
40649;SDS011;26342;42.826;23.992;2023-04-29T05:01:38;2.67;;;1.88;;
40649;SDS011;26342;42.826;23.992;2023-04-29T05:04:07;2.78;;;1.58;;
40649;SDS011;26342;42.826;23.992;2023-04-29T05:06:33;2.40;;;2.00;;
40649;SDS011;26342;42.826;23.992;2023-04-29T05:08:58;7.35;;;4.97;;
40649;SDS011;26342;42.826;23.992;2023-04-29T05:11:24;6.32;;;3.38;;
40649;SDS011;26342;42.826;23.992;2023-04-29T05:13:52;10.68;;;3.97;;
40649;SDS011;26342;42.826;23.992;2023-04-29T05:16:19;1.92;;;1.73;;
40649;SDS011;26342;42.826;23.992;2023-04-29T05:18:44;2.80;;;2.60;;
40649;SDS011;26342;42.826;23.992;2023-04-29T05:21:11;1.75;;;1.08;;
40649;SDS011;26342;42.826;23.992;2023-04-29T05:23:37;1.88;;;1.73;;
40649;SDS011;26342;42.826;23.992;2023-04-29T05:26:04;5.47;;;3.10;;
40649;SDS011;26342;42.826;23.992;2023-04-29T05:28:29;5.88;;;3.30;;
40649;SDS011;26342;42.826;23.992;2023-04-29T05:30:55;5.78;;;4.10;;
40649;SDS011;26342;42.826;23.992;2023-04-29T05:33:21;4.30;;;3.72;;
40649;SDS011;26342;42.826;23.992;2023-04-29T05:35:48;7.10;;;5.78;;
40649;SDS011;26342;42.826;23.992;2023-04-29T05:38:14;6.80;;;4.38;;
40649;SDS011;26342;42.826;23.992;2023-04-29T05:40:40;4.47;;;3.55;;
40649;SDS011;26342;42.826;23.992;2023-04-29T05:43:09;4.97;;;2.60;;
40649;SDS011;26342;42.826;23.992;2023-04-29T05:45:35;2.13;;;1.95;;
40649;SDS011;26342;42.826;23.992;2023-04-29T05:48:02;3.10;;;2.15;;
40649;SDS011;26342;42.826;23.992;2023-04-29T05:50:28;6.60;;;3.17;;
40649;SDS011;26342;42.826;23.992;2023-04-29T05:52:54;3.97;;;3.60;;
40649;SDS011;26342;42.826;23.992;2023-04-29T05:55:20;6.45;;;4.45;;
40649;SDS011;26342;42.826;23.992;2023-04-29T05:57:49;6.63;;;5.32;;
40649;SDS011;26342;42.826;23.992;2023-04-29T06:00:15;5.72;;;2.95;;
40649;SDS011;26342;42.826;23.992;2023-04-29T06:02:42;2.55;;;2.20;;
40649;SDS011;26342;42.826;23.992;2023-04-29T06:05:09;18.25;;;5.40;;
40649;SDS011;26342;42.826;23.992;2023-04-29T06:07:35;6.72;;;3.05;;
40649;SDS011;26342;42.826;23.992;2023-04-29T06:10:04;1.83;;;1.70;;
40649;SDS011;26342;42.826;23.992;2023-04-29T06:12:30;4.20;;;2.92;;
40649;SDS011;26342;42.826;23.992;2023-04-29T06:14:57;4.38;;;2.65;;
40649;SDS011;26342;42.826;23.992;2023-04-29T06:17:23;5.70;;;3.25;;
40649;SDS011;26342;42.826;23.992;2023-04-29T06:19:49;2.75;;;2.50;;
40649;SDS011;26342;42.826;23.992;2023-04-29T06:22:15;3.85;;;2.05;;
40649;SDS011;26342;42.826;23.992;2023-04-29T06:24:41;3.35;;;1.98;;
40649;SDS011;26342;42.826;23.992;2023-04-29T06:27:06;5.60;;;2.75;;
40649;SDS011;26342;42.826;23.992;2023-04-29T06:29:32;4.55;;;2.47;;
40649;SDS011;26342;42.826;23.992;2023-04-29T06:32:00;14.35;;;3.50;;
40649;SDS011;26342;42.826;23.992;2023-04-29T06:34:26;4.95;;;2.85;;
40649;SDS011;26342;42.826;23.992;2023-04-29T06:36:52;3.88;;;2.83;;
40649;SDS011;26342;42.826;23.992;2023-04-29T06:39:17;2.88;;;2.10;;
40649;SDS011;26342;42.826;23.992;2023-04-29T06:41:43;5.03;;;2.72;;
40649;SDS011;26342;42.826;23.992;2023-04-29T06:44:13;4.55;;;1.83;;
40649;SDS011;26342;42.826;23.992;2023-04-29T06:46:41;3.45;;;2.55;;
40649;SDS011;26342;42.826;23.992;2023-04-29T06:49:09;2.00;;;1.80;;
40649;SDS011;26342;42.826;23.992;2023-04-29T06:51:38;5.65;;;2.80;;
40649;SDS011;26342;42.826;23.992;2023-04-29T06:54:03;3.50;;;2.05;;
40649;SDS011;26342;42.826;23.992;2023-04-29T06:56:28;2.10;;;1.55;;
40649;SDS011;26342;42.826;23.992;2023-04-29T06:58:54;4.13;;;1.65;;
40649;SDS011;26342;42.826;23.992;2023-04-29T07:01:26;7.15;;;1.98;;
40649;SDS011;26342;42.826;23.992;2023-04-29T07:03:58;9.05;;;1.70;;
40649;SDS011;26342;42.826;23.992;2023-04-29T07:06:28;1.02;;;0.68;;
40649;SDS011;26342;42.826;23.992;2023-04-29T07:08:54;1.15;;;0.75;;
40649;SDS011;26342;42.826;23.992;2023-04-29T07:11:20;5.63;;;0.70;;
40649;SDS011;26342;42.826;23.992;2023-04-29T07:13:53;1.13;;;0.70;;
40649;SDS011;26342;42.826;23.992;2023-04-29T07:16:22;0.52;;;0.40;;
40649;SDS011;26342;42.826;23.992;2023-04-29T07:18:50;1.05;;;1.05;;
40649;SDS011;26342;42.826;23.992;2023-04-29T07:21:16;1.25;;;1.15;;
40649;SDS011;26342;42.826;23.992;2023-04-29T07:23:43;0.68;;;0.45;;
40649;SDS011;26342;42.826;23.992;2023-04-29T07:26:09;0.77;;;0.77;;
40649;SDS011;26342;42.826;23.992;2023-04-29T07:28:35;0.45;;;0.45;;
40649;SDS011;26342;42.826;23.992;2023-04-29T07:31:00;0.20;;;0.20;;
40649;SDS011;26342;42.826;23.992;2023-04-29T07:33:26;0.35;;;0.35;;
40649;SDS011;26342;42.826;23.992;2023-04-29T07:35:52;1.05;;;0.70;;
40649;SDS011;26342;42.826;23.992;2023-04-29T07:38:17;0.80;;;0.77;;
40649;SDS011;26342;42.826;23.992;2023-04-29T07:40:45;0.50;;;0.50;;
40649;SDS011;26342;42.826;23.992;2023-04-29T07:43:10;0.63;;;0.55;;
40649;SDS011;26342;42.826;23.992;2023-04-29T07:45:38;0.40;;;0.40;;
40649;SDS011;26342;42.826;23.992;2023-04-29T07:48:04;0.20;;;0.20;;
40649;SDS011;26342;42.826;23.992;2023-04-29T07:50:34;2.38;;;0.98;;
40649;SDS011;26342;42.826;23.992;2023-04-29T07:53:03;0.88;;;0.22;;
40649;SDS011;26342;42.826;23.992;2023-04-29T07:55:31;0.10;;;0.10;;
40649;SDS011;26342;42.826;23.992;2023-04-29T07:57:57;0.10;;;0.10;;
40649;SDS011;26342;42.826;23.992;2023-04-29T08:00:23;1.30;;;0.40;;
40649;SDS011;26342;42.826;23.992;2023-04-29T08:02:50;0.98;;;0.60;;
40649;SDS011;26342;42.826;23.992;2023-04-29T08:05:20;3.15;;;0.63;;
40649;SDS011;26342;42.826;23.992;2023-04-29T08:07:46;1.75;;;0.20;;
40649;SDS011;26342;42.826;23.992;2023-04-29T08:10:13;0.30;;;0.30;;
40649;SDS011;26342;42.826;23.992;2023-04-29T08:12:38;0.20;;;0.20;;
40649;SDS011;26342;42.826;23.992;2023-04-29T08:15:05;0.90;;;0.30;;
40649;SDS011;26342;42.826;23.992;2023-04-29T08:17:31;0.45;;;0.45;;
40649;SDS011;26342;42.826;23.992;2023-04-29T08:19:56;0.20;;;0.20;;
40649;SDS011;26342;42.826;23.992;2023-04-29T08:22:23;0.35;;;0.22;;
40649;SDS011;26342;42.826;23.992;2023-04-29T08:25:12;0.68;;;0.40;;
40649;SDS011;26342;42.826;23.992;2023-04-29T08:27:37;0.40;;;0.40;;
40649;SDS011;26342;42.826;23.992;2023-04-29T08:30:05;0.43;;;0.43;;
40649;SDS011;26342;42.826;23.992;2023-04-29T08:32:32;0.55;;;0.50;;
40649;SDS011;26342;42.826;23.992;2023-04-29T08:34:59;0.98;;;0.30;;
40649;SDS011;26342;42.826;23.992;2023-04-29T08:37:24;0.10;;;0.10;;
40649;SDS011;26342;42.826;23.992;2023-04-29T08:39:50;0.60;;;0.60;;
40649;SDS011;26342;42.826;23.992;2023-04-29T08:42:15;0.20;;;0.20;;
40649;SDS011;26342;42.826;23.992;2023-04-29T08:44:46;0.95;;;0.40;;
40649;SDS011;26342;42.826;23.992;2023-04-29T08:47:13;0.25;;;0.25;;
40649;SDS011;26342;42.826;23.992;2023-04-29T08:49:40;2.72;;;0.95;;
40649;SDS011;26342;42.826;23.992;2023-04-29T08:52:07;0.70;;;0.47;;
40649;SDS011;26342;42.826;23.992;2023-04-29T08:54:32;0.20;;;0.20;;
40649;SDS011;26342;42.826;23.992;2023-04-29T08:56:58;1.85;;;0.43;;
40649;SDS011;26342;42.826;23.992;2023-04-29T08:59:25;0.52;;;0.52;;
40649;SDS011;26342;42.826;23.992;2023-04-29T09:01:52;0.20;;;0.20;;
40649;SDS011;26342;42.826;23.992;2023-04-29T09:07:11;0.20;;;0.20;;
40649;SDS011;26342;42.826;23.992;2023-04-29T09:09:38;1.05;;;0.55;;
40649;SDS011;26342;42.826;23.992;2023-04-29T09:12:04;0.10;;;0.10;;
40649;SDS011;26342;42.826;23.992;2023-04-29T09:14:30;0.15;;;0.15;;
40649;SDS011;26342;42.826;23.992;2023-04-29T09:16:58;0.80;;;0.73;;
40649;SDS011;26342;42.826;23.992;2023-04-29T09:19:34;0.50;;;0.50;;
40649;SDS011;26342;42.826;23.992;2023-04-29T09:22:01;1.85;;;0.68;;
40649;SDS011;26342;42.826;23.992;2023-04-29T09:24:30;1.27;;;0.57;;
40649;SDS011;26342;42.826;23.992;2023-04-29T09:27:39;0.40;;;0.40;;
40649;SDS011;26342;42.826;23.992;2023-04-29T09:30:05;0.30;;;0.30;;
40649;SDS011;26342;42.826;23.992;2023-04-29T09:32:31;1.17;;;0.30;;
40649;SDS011;26342;42.826;23.992;2023-04-29T09:35:08;0.90;;;0.70;;
40649;SDS011;26342;42.826;23.992;2023-04-29T09:37:51;2.53;;;1.17;;
40649;SDS011;26342;42.826;23.992;2023-04-29T09:40:32;0.52;;;0.52;;
40649;SDS011;26342;42.826;23.992;2023-04-29T09:42:58;0.40;;;0.40;;
40649;SDS011;26342;42.826;23.992;2023-04-29T09:45:38;0.93;;;0.30;;
40649;SDS011;26342;42.826;23.992;2023-04-29T09:48:08;0.10;;;0.10;;
40649;SDS011;26342;42.826;23.992;2023-04-29T09:50:40;0.43;;;0.30;;
40649;SDS011;26342;42.826;23.992;2023-04-29T09:53:26;0.80;;;0.80;;
40649;SDS011;26342;42.826;23.992;2023-04-29T09:58:26;0.30;;;0.30;;
40649;SDS011;26342;42.826;23.992;2023-04-29T10:00:58;0.25;;;0.25;;
40649;SDS011;26342;42.826;23.992;2023-04-29T10:03:28;0.00;;;0.00;;
40649;SDS011;26342;42.826;23.992;2023-04-29T10:05:57;0.40;;;0.40;;
40649;SDS011;26342;42.826;23.992;2023-04-29T10:08:23;0.85;;;0.68;;
40649;SDS011;26342;42.826;23.992;2023-04-29T10:10:51;0.55;;;0.38;;
40649;SDS011;26342;42.826;23.992;2023-04-29T10:13:22;0.30;;;0.30;;
40649;SDS011;26342;42.826;23.992;2023-04-29T10:15:51;0.47;;;0.45;;
40649;SDS011;26342;42.826;23.992;2023-04-29T10:18:20;0.20;;;0.15;;
40649;SDS011;26342;42.826;23.992;2023-04-29T10:20:54;0.75;;;0.57;;
40649;SDS011;26342;42.826;23.992;2023-04-29T10:23:22;1.75;;;0.73;;
40649;SDS011;26342;42.826;23.992;2023-04-29T10:25:49;0.20;;;0.20;;
40649;SDS011;26342;42.826;23.992;2023-04-29T10:28:19;0.10;;;0.10;;
40649;SDS011;26342;42.826;23.992;2023-04-29T10:30:50;0.10;;;0.10;;
40649;SDS011;26342;42.826;23.992;2023-04-29T10:33:19;0.60;;;0.43;;
40649;SDS011;26342;42.826;23.992;2023-04-29T10:35:47;0.47;;;0.10;;
40649;SDS011;26342;42.826;23.992;2023-04-29T10:38:21;0.10;;;0.10;;
40649;SDS011;26342;42.826;23.992;2023-04-29T10:41:09;1.02;;;0.45;;
40649;SDS011;26342;42.826;23.992;2023-04-29T10:43:44;0.08;;;0.08;;
40649;SDS011;26342;42.826;23.992;2023-04-29T10:46:17;0.03;;;0.03;;
40649;SDS011;26342;42.826;23.992;2023-04-29T10:49:02;0.40;;;0.40;;
40649;SDS011;26342;42.826;23.992;2023-04-29T10:51:31;0.40;;;0.40;;
40649;SDS011;26342;42.826;23.992;2023-04-29T10:53:58;0.10;;;0.10;;
40649;SDS011;26342;42.826;23.992;2023-04-29T10:59:04;2.95;;;0.45;;
40649;SDS011;26342;42.826;23.992;2023-04-29T11:01:47;0.95;;;0.80;;
40649;SDS011;26342;42.826;23.992;2023-04-29T11:04:18;0.30;;;0.30;;
40649;SDS011;26342;42.826;23.992;2023-04-29T11:06:54;0.08;;;0.08;;
40649;SDS011;26342;42.826;23.992;2023-04-29T11:09:24;2.10;;;1.35;;
40649;SDS011;26342;42.826;23.992;2023-04-29T11:14:40;0.17;;;0.17;;
40649;SDS011;26342;42.826;23.992;2023-04-29T11:17:21;0.15;;;0.15;;
40649;SDS011;26342;42.826;23.992;2023-04-29T11:19:51;0.38;;;0.38;;
40649;SDS011;26342;42.826;23.992;2023-04-29T11:27:19;0.22;;;0.22;;
40649;SDS011;26342;42.826;23.992;2023-04-29T11:29:49;1.02;;;0.82;;
40649;SDS011;26342;42.826;23.992;2023-04-29T11:32:18;0.68;;;0.43;;
40649;SDS011;26342;42.826;23.992;2023-04-29T11:34:46;0.40;;;0.40;;
40649;SDS011;26342;42.826;23.992;2023-04-29T11:37:11;1.02;;;0.70;;
40649;SDS011;26342;42.826;23.992;2023-04-29T11:39:36;0.30;;;0.30;;
40649;SDS011;26342;42.826;23.992;2023-04-29T11:42:06;0.40;;;0.38;;
40649;SDS011;26342;42.826;23.992;2023-04-29T11:44:45;0.32;;;0.20;;
40649;SDS011;26342;42.826;23.992;2023-04-29T11:47:10;0.20;;;0.20;;
40649;SDS011;26342;42.826;23.992;2023-04-29T11:49:40;0.38;;;0.38;;
40649;SDS011;26342;42.826;23.992;2023-04-29T11:52:13;0.82;;;0.47;;
40649;SDS011;26342;42.826;23.992;2023-04-29T11:54:39;0.50;;;0.50;;
40649;SDS011;26342;42.826;23.992;2023-04-29T11:57:05;0.25;;;0.20;;
40649;SDS011;26342;42.826;23.992;2023-04-29T11:59:30;10.02;;;0.47;;
40649;SDS011;26342;42.826;23.992;2023-04-29T12:01:59;0.20;;;0.20;;
40649;SDS011;26342;42.826;23.992;2023-04-29T12:04:25;0.93;;;0.50;;
40649;SDS011;26342;42.826;23.992;2023-04-29T12:06:50;2.25;;;0.80;;
40649;SDS011;26342;42.826;23.992;2023-04-29T12:09:17;0.95;;;0.40;;
40649;SDS011;26342;42.826;23.992;2023-04-29T12:11:43;1.83;;;0.60;;
40649;SDS011;26342;42.826;23.992;2023-04-29T12:14:08;0.10;;;0.10;;
40649;SDS011;26342;42.826;23.992;2023-04-29T12:16:34;0.30;;;0.28;;
40649;SDS011;26342;42.826;23.992;2023-04-29T12:19:00;0.22;;;0.20;;
40649;SDS011;26342;42.826;23.992;2023-04-29T12:21:26;0.10;;;0.10;;
40649;SDS011;26342;42.826;23.992;2023-04-29T12:23:53;0.32;;;0.20;;
40649;SDS011;26342;42.826;23.992;2023-04-29T12:26:29;0.10;;;0.10;;
40649;SDS011;26342;42.826;23.992;2023-04-29T12:28:56;0.80;;;0.52;;
40649;SDS011;26342;42.826;23.992;2023-04-29T12:31:31;0.52;;;0.52;;
40649;SDS011;26342;42.826;23.992;2023-04-29T12:33:58;0.38;;;0.22;;
40649;SDS011;26342;42.826;23.992;2023-04-29T12:36:23;0.20;;;0.20;;
40649;SDS011;26342;42.826;23.992;2023-04-29T12:38:49;0.40;;;0.40;;
40649;SDS011;26342;42.826;23.992;2023-04-29T12:41:16;0.13;;;0.13;;
40649;SDS011;26342;42.826;23.992;2023-04-29T12:43:43;0.38;;;0.38;;
40649;SDS011;26342;42.826;23.992;2023-04-29T12:46:09;1.50;;;0.60;;
40649;SDS011;26342;42.826;23.992;2023-04-29T12:48:39;1.10;;;0.60;;
40649;SDS011;26342;42.826;23.992;2023-04-29T12:51:09;2.53;;;1.05;;
40649;SDS011;26342;42.826;23.992;2023-04-29T12:53:34;1.10;;;0.93;;
40649;SDS011;26342;42.826;23.992;2023-04-29T12:56:00;0.40;;;0.40;;
40649;SDS011;26342;42.826;23.992;2023-04-29T12:58:29;1.00;;;0.47;;
40649;SDS011;26342;42.826;23.992;2023-04-29T13:00:55;0.98;;;0.43;;
40649;SDS011;26342;42.826;23.992;2023-04-29T13:03:21;0.75;;;0.52;;
40649;SDS011;26342;42.826;23.992;2023-04-29T13:05:49;0.30;;;0.30;;
40649;SDS011;26342;42.826;23.992;2023-04-29T13:08:16;3.83;;;1.10;;
40649;SDS011;26342;42.826;23.992;2023-04-29T13:10:42;0.45;;;0.45;;
40649;SDS011;26342;42.826;23.992;2023-04-29T13:13:08;0.93;;;0.68;;
40649;SDS011;26342;42.826;23.992;2023-04-29T13:15:35;0.60;;;0.60;;
40649;SDS011;26342;42.826;23.992;2023-04-29T13:18:10;0.77;;;0.55;;
40649;SDS011;26342;42.826;23.992;2023-04-29T13:20:41;1.20;;;0.90;;
40649;SDS011;26342;42.826;23.992;2023-04-29T13:23:07;0.20;;;0.20;;
40649;SDS011;26342;42.826;23.992;2023-04-29T13:25:33;0.15;;;0.15;;
40649;SDS011;26342;42.826;23.992;2023-04-29T13:27:58;0.10;;;0.10;;
40649;SDS011;26342;42.826;23.992;2023-04-29T13:30:24;0.40;;;0.40;;
40649;SDS011;26342;42.826;23.992;2023-04-29T13:32:53;0.30;;;0.30;;
40649;SDS011;26342;42.826;23.992;2023-04-29T13:35:18;3.75;;;1.60;;
40649;SDS011;26342;42.826;23.992;2023-04-29T13:37:44;0.93;;;0.57;;
40649;SDS011;26342;42.826;23.992;2023-04-29T13:40:09;3.92;;;1.15;;
40649;SDS011;26342;42.826;23.992;2023-04-29T13:42:35;0.45;;;0.45;;
40649;SDS011;26342;42.826;23.992;2023-04-29T13:45:01;1.15;;;0.80;;
40649;SDS011;26342;42.826;23.992;2023-04-29T13:47:27;1.23;;;1.13;;
40649;SDS011;26342;42.826;23.992;2023-04-29T13:49:53;0.73;;;0.63;;
40649;SDS011;26342;42.826;23.992;2023-04-29T13:52:19;0.47;;;0.47;;
40649;SDS011;26342;42.826;23.992;2023-04-29T13:54:46;0.80;;;0.65;;
40649;SDS011;26342;42.826;23.992;2023-04-29T13:57:11;2.15;;;1.15;;
40649;SDS011;26342;42.826;23.992;2023-04-29T13:59:37;0.82;;;0.40;;
40649;SDS011;26342;42.826;23.992;2023-04-29T14:02:02;1.27;;;0.93;;
40649;SDS011;26342;42.826;23.992;2023-04-29T14:04:28;2.63;;;1.30;;
40649;SDS011;26342;42.826;23.992;2023-04-29T14:06:54;0.98;;;0.60;;
40649;SDS011;26342;42.826;23.992;2023-04-29T14:09:22;2.92;;;0.80;;
40649;SDS011;26342;42.826;23.992;2023-04-29T14:11:48;0.68;;;0.43;;
40649;SDS011;26342;42.826;23.992;2023-04-29T14:14:14;1.17;;;0.82;;
40649;SDS011;26342;42.826;23.992;2023-04-29T14:16:40;1.13;;;0.80;;
40649;SDS011;26342;42.826;23.992;2023-04-29T14:19:07;8.20;;;3.50;;
40649;SDS011;26342;42.826;23.992;2023-04-29T14:21:33;0.80;;;0.80;;
40649;SDS011;26342;42.826;23.992;2023-04-29T14:24:00;8.00;;;4.25;;
40649;SDS011;26342;42.826;23.992;2023-04-29T14:26:27;0.60;;;0.60;;
40649;SDS011;26342;42.826;23.992;2023-04-29T14:28:54;0.82;;;0.50;;
40649;SDS011;26342;42.826;23.992;2023-04-29T14:31:25;2.63;;;1.17;;
40649;SDS011;26342;42.826;23.992;2023-04-29T14:34:01;0.82;;;0.82;;
40649;SDS011;26342;42.826;23.992;2023-04-29T14:36:29;1.15;;;0.98;;
40649;SDS011;26342;42.826;23.992;2023-04-29T14:38:59;1.85;;;0.85;;
40649;SDS011;26342;42.826;23.992;2023-04-29T14:41:26;1.05;;;0.70;;
40649;SDS011;26342;42.826;23.992;2023-04-29T14:43:54;0.55;;;0.40;;
40649;SDS011;26342;42.826;23.992;2023-04-29T14:46:22;3.45;;;1.27;;
40649;SDS011;26342;42.826;23.992;2023-04-29T14:48:49;1.20;;;0.82;;
40649;SDS011;26342;42.826;23.992;2023-04-29T14:51:19;0.35;;;0.35;;
40649;SDS011;26342;42.826;23.992;2023-04-29T14:53:45;2.78;;;1.23;;
40649;SDS011;26342;42.826;23.992;2023-04-29T14:56:11;3.30;;;0.63;;
40649;SDS011;26342;42.826;23.992;2023-04-29T14:58:37;1.02;;;0.85;;
40649;SDS011;26342;42.826;23.992;2023-04-29T15:01:04;0.50;;;0.50;;
40649;SDS011;26342;42.826;23.992;2023-04-29T15:03:31;0.25;;;0.25;;
40649;SDS011;26342;42.826;23.992;2023-04-29T15:06:00;1.02;;;0.93;;